createdAt,value
2019-01-02T00:01:11.184Z,81.00
2019-01-02T00:04:18.099Z,81.25
2019-01-02T00:07:26.640Z,81.44
2019-01-02T00:10:34.834Z,82.21
2019-01-02T00:13:41.797Z,81.91
2019-01-02T00:16:48.498Z,81.17
2019-01-02T00:19:55.203Z,81.22
2019-01-02T00:23:02.173Z,81.37
2019-01-02T00:26:09.071Z,81.58
2019-01-02T00:29:16.000Z,82.08
2019-01-02T00:32:24.036Z,82.63
2019-01-02T00:35:34.042Z,84.47
2019-01-02T00:38:40.988Z,85.18
2019-01-02T00:41:48.349Z,84.96
2019-01-02T00:44:55.615Z,85.30
2019-01-02T00:48:02.695Z,85.34
2019-01-02T00:51:09.965Z,85.90
2019-01-02T00:54:17.444Z,85.57
2019-01-02T00:57:24.333Z,85.92
2019-01-02T01:00:33.151Z,85.63
2019-01-02T01:03:39.784Z,85.92
2019-01-02T01:06:47.074Z,86.23
2019-01-02T01:09:54.215Z,86.02
2019-01-02T01:13:01.517Z,86.92
2019-01-02T01:16:08.405Z,86.63
2019-01-02T01:19:15.413Z,86.01
2019-01-02T01:22:22.078Z,87.15
2019-01-02T01:25:29.911Z,89.05
2019-01-02T01:28:38.537Z,91.12
2019-01-02T01:31:45.698Z,92.27
2019-01-02T01:34:52.643Z,93.17
2019-01-02T01:37:59.567Z,94.25
2019-01-02T01:41:06.751Z,95.39
2019-01-02T01:44:13.474Z,95.91
2019-01-02T01:47:20.389Z,97.14
2019-01-02T01:50:27.351Z,97.33
2019-01-02T01:53:34.482Z,97.40
2019-01-02T01:56:41.893Z,98.35
2019-01-02T01:59:49.010Z,98.35
2019-01-02T02:02:56.231Z,98.27
2019-01-02T02:06:03.424Z,98.55
2019-01-02T02:09:10.750Z,98.54
2019-01-02T02:12:17.811Z,98.89
2019-01-02T02:15:25.109Z,98.91
2019-01-02T02:18:35.160Z,99.00
2019-01-02T02:21:43.915Z,98.98
2019-01-02T02:24:50.580Z,99.20
2019-01-02T02:27:57.449Z,99.01
2019-01-02T02:31:04.400Z,98.75
2019-01-02T02:34:11.686Z,98.73
2019-01-02T02:37:18.932Z,99.15
2019-01-02T02:40:27.207Z,98.93
2019-01-02T02:43:34.118Z,98.80
2019-01-02T02:46:47.937Z,99.18
2019-01-02T02:49:54.560Z,99.34
2019-01-02T02:53:01.485Z,99.28
2019-01-02T02:56:08.435Z,99.15
2019-01-02T02:59:15.875Z,99.04
2019-01-02T03:02:22.962Z,98.87
2019-01-02T03:05:29.664Z,99.16
2019-01-02T03:08:36.593Z,99.10
2019-01-02T03:11:46.326Z,98.85
2019-01-02T03:14:53.220Z,99.23
2019-01-02T03:18:00.433Z,99.49
2019-01-02T03:21:07.144Z,99.45
2019-01-02T03:24:13.824Z,99.46
2019-01-02T03:27:22.812Z,99.22
2019-01-02T03:30:29.776Z,99.06
2019-01-02T03:33:36.951Z,98.92
2019-01-02T03:36:43.641Z,98.68
2019-01-02T03:39:50.304Z,98.72
2019-01-02T03:42:57.042Z,99.21
2019-01-02T03:46:03.762Z,99.15
2019-01-02T03:49:10.488Z,98.90
2019-01-02T03:52:19.814Z,99.21
2019-01-02T03:55:26.816Z,99.04
2019-01-02T03:58:33.735Z,98.99
2019-01-02T04:01:41.812Z,99.14
2019-01-02T04:04:48.966Z,99.01
2019-01-02T04:08:09.190Z,98.65
2019-01-02T04:11:17.655Z,98.25
2019-01-02T04:14:26.983Z,97.82
2019-01-02T04:17:35.536Z,97.93
2019-01-02T04:20:42.545Z,97.31
2019-01-02T04:23:57.134Z,97.32
2019-01-02T04:27:03.851Z,97.13
2019-01-02T04:30:13.988Z,96.91
2019-01-02T04:33:24.196Z,96.64
2019-01-02T04:36:30.864Z,96.41
2019-01-02T04:39:40.120Z,96.08
2019-01-02T04:42:47.235Z,96.17
2019-01-02T04:45:54.180Z,96.12
2019-01-02T04:49:01.129Z,96.07
2019-01-02T04:52:09.157Z,95.68
2019-01-02T04:55:16.091Z,95.64
2019-01-02T04:58:22.789Z,95.24
2019-01-02T05:01:29.704Z,95.12
2019-01-02T05:04:36.760Z,95.07
2019-01-02T05:07:44.032Z,94.41
2019-01-02T05:10:50.787Z,94.71
2019-01-02T05:13:57.458Z,94.04
2019-01-02T05:17:04.155Z,93.51
2019-01-02T05:20:14.350Z,93.13
2019-01-02T05:23:21.235Z,93.20
2019-01-02T05:26:27.864Z,93.33
2019-01-02T05:29:35.095Z,92.73
2019-01-02T05:32:41.790Z,92.62
2019-01-02T05:35:48.757Z,92.39
2019-01-02T05:38:55.657Z,92.33
2019-01-02T05:42:03.256Z,91.83
2019-01-02T05:45:10.161Z,91.81
2019-01-02T05:48:17.272Z,91.24
2019-01-02T05:51:24.240Z,92.01
2019-01-02T05:54:30.947Z,91.61
2019-01-02T05:57:37.605Z,91.52
2019-01-02T06:00:44.539Z,92.06
2019-01-02T06:03:54.687Z,91.78
2019-01-02T06:07:02.531Z,91.11
2019-01-02T06:10:13.618Z,91.79
2019-01-02T06:13:20.436Z,90.79
2019-01-02T06:16:28.387Z,91.85
2019-01-02T06:19:35.326Z,91.89
2019-01-02T06:22:42.850Z,90.72
2019-01-02T06:25:49.830Z,91.30
2019-01-02T06:28:56.787Z,90.90
2019-01-02T06:32:06.900Z,90.35
2019-01-02T06:35:13.728Z,90.46
2019-01-02T06:38:20.648Z,90.90
2019-01-02T06:41:27.300Z,90.22
2019-01-02T06:44:34.484Z,90.30
2019-01-02T06:47:41.433Z,89.69
2019-01-02T06:50:48.360Z,89.15
2019-01-02T06:53:55.196Z,89.55
2019-01-02T06:57:02.382Z,88.27
2019-01-02T07:00:16.086Z,88.14
2019-01-02T07:03:22.808Z,87.28
2019-01-02T07:06:29.488Z,85.91
2019-01-02T07:09:36.846Z,86.61
2019-01-02T07:12:43.516Z,86.53
2019-01-02T07:15:58.046Z,85.89
2019-01-02T07:19:04.933Z,84.34
2019-01-02T07:22:13.288Z,85.46
2019-01-02T07:25:21.358Z,84.25
2019-01-02T07:28:29.155Z,84.61
2019-01-02T07:31:35.797Z,82.96
2019-01-02T07:35:38.944Z,83.34
2019-01-02T07:39:16.418Z,83.22
2019-01-02T07:43:11.679Z,82.21
2019-01-02T07:47:18.328Z,82.48
2019-01-02T07:51:42.778Z,82.15
2019-01-02T07:55:44.499Z,81.84
2019-01-02T07:59:53.769Z,81.16
2019-01-02T08:03:53.644Z,81.33
2019-01-02T08:07:43.574Z,81.06
2019-01-02T08:12:08.521Z,80.48
2019-01-02T08:16:09.356Z,80.65
2019-01-02T08:20:30.794Z,80.04
2019-01-02T08:24:36.805Z,80.25
2019-01-02T08:28:54.655Z,80.45
2019-01-02T08:33:09.530Z,79.38
2019-01-02T08:36:57.385Z,79.73
2019-01-02T08:40:28.269Z,80.66
2019-01-02T08:44:34.021Z,79.82
2019-01-02T08:48:34.706Z,79.11
2019-01-02T08:52:31.342Z,80.09
2019-01-02T08:56:14.017Z,79.52
2019-01-02T08:59:49.654Z,80.01
2019-01-02T09:04:11.127Z,80.29
2019-01-02T09:08:07.049Z,80.26
2019-01-02T09:12:16.122Z,79.39
2019-01-02T09:16:36.751Z,80.09
2019-01-02T09:20:10.016Z,79.41
2019-01-02T09:24:05.061Z,80.20
2019-01-02T09:28:21.496Z,80.07
2019-01-02T09:32:41.526Z,79.02
2019-01-02T09:36:46.384Z,88.50
2019-01-02T09:40:45.486Z,93.18
2019-01-02T09:45:20.001Z,93.82
2019-01-02T09:48:58.419Z,93.55
2019-01-02T09:53:01.346Z,93.78
2019-01-02T09:57:22.616Z,94.83
2019-01-02T10:01:06.140Z,95.69
2019-01-02T10:05:01.552Z,95.78
2019-01-02T10:08:51.797Z,94.87
2019-01-02T10:12:43.979Z,92.27
2019-01-02T10:17:03.403Z,90.16
2019-01-02T10:21:17.532Z,89.27
2019-01-02T10:25:03.564Z,87.14
2019-01-02T10:28:53.047Z,85.09
2019-01-02T10:32:51.641Z,84.98
2019-01-02T10:37:17.968Z,89.09
2019-01-02T10:41:25.699Z,92.22
2019-01-02T10:45:30.272Z,89.41
2019-01-02T10:49:37.510Z,89.41
2019-01-02T10:53:47.758Z,88.15
2019-01-02T10:57:40.711Z,86.26
2019-01-02T11:01:35.506Z,86.98
2019-01-02T11:05:36.890Z,86.75
2019-01-02T11:09:31.284Z,85.97
2019-01-02T11:13:20.307Z,85.71
2019-01-02T11:17:34.024Z,84.91
2019-01-02T11:21:58.111Z,84.91
2019-01-02T11:25:57.769Z,85.35
2019-01-02T11:29:38.114Z,84.47
2019-01-02T11:33:40.266Z,84.89
2019-01-02T11:37:51.222Z,82.91
2019-01-02T11:41:31.835Z,82.58
2019-01-02T11:45:07.274Z,81.96
2019-01-02T11:48:14.198Z,80.15
2019-01-02T11:51:22.741Z,80.60
2019-01-02T11:54:29.972Z,79.47
2019-01-02T11:57:57.443Z,79.72
2019-01-02T12:01:03.480Z,79.11
2019-01-02T12:04:10.391Z,79.83
2019-01-02T12:07:18.368Z,79.62
2019-01-02T12:10:25.372Z,78.83
2019-01-02T12:13:37.335Z,80.00
2019-01-02T12:16:44.290Z,78.90
2019-01-02T12:19:51.423Z,78.65
2019-01-02T12:22:58.207Z,78.80
2019-01-02T12:26:05.049Z,78.50
2019-01-02T12:29:11.999Z,78.40
2019-01-02T12:32:21.984Z,78.65
2019-01-02T12:35:29.034Z,77.81
2019-01-02T12:38:35.779Z,79.23
2019-01-02T12:41:42.505Z,78.69
2019-01-02T12:44:49.190Z,79.73
2019-01-02T12:47:55.920Z,79.96
2019-01-02T12:51:02.678Z,79.94
2019-01-02T12:54:09.384Z,79.81
2019-01-02T12:57:16.050Z,80.83
2019-01-02T13:00:23.364Z,84.19
2019-01-02T13:04:27.055Z,86.32
2019-01-02T13:09:04.740Z,85.93
2019-01-02T13:13:03.892Z,84.55
2019-01-02T13:16:48.752Z,84.16
2019-01-02T13:21:10.024Z,81.97
2019-01-02T13:25:15.642Z,82.88
2019-01-02T13:29:27.794Z,80.00
2019-01-02T13:33:04.492Z,79.42
2019-01-02T13:36:39.646Z,78.01
2019-01-02T13:40:30.846Z,76.04
2019-01-02T13:44:00.983Z,74.75
2019-01-02T13:51:31.102Z,76.14
2019-01-02T13:54:49.739Z,75.33
2019-01-02T13:57:59.086Z,76.59
2019-01-02T14:01:05.994Z,75.71
2019-01-02T14:04:13.099Z,75.60
2019-01-02T14:07:19.789Z,76.22
2019-01-02T14:10:28.498Z,74.29
2019-01-02T14:13:36.662Z,74.53
2019-01-02T14:16:45.057Z,73.96
2019-01-02T14:19:52.021Z,73.95
2019-01-02T14:22:59.629Z,72.60
2019-01-02T14:26:06.563Z,70.43
2019-01-02T14:29:13.300Z,69.67
2019-01-02T14:32:22.493Z,69.64
2019-01-02T14:35:29.496Z,68.15
2019-01-02T14:38:36.682Z,70.96
2019-01-02T14:41:43.649Z,71.79
2019-01-02T14:44:50.652Z,69.74
2019-01-02T14:47:57.890Z,69.71
2019-01-02T14:51:04.747Z,71.27
2019-01-02T14:54:11.687Z,71.11
2019-01-02T14:57:20.898Z,68.73
2019-01-02T15:00:27.877Z,69.89
2019-01-02T15:03:36.804Z,69.84
2019-01-02T15:06:43.989Z,70.58
2019-01-02T15:09:51.012Z,70.51
2019-01-02T15:12:57.919Z,71.04
2019-01-02T15:16:04.830Z,70.92
2019-01-02T15:19:12.294Z,71.14
2019-01-02T15:22:19.183Z,71.08
2019-01-02T15:25:26.421Z,70.91
2019-01-02T15:28:35.103Z,71.75
2019-01-02T15:31:44.467Z,71.19
2019-01-02T15:34:52.989Z,71.52
2019-01-02T15:37:59.928Z,71.85
2019-01-02T15:41:06.958Z,71.92
2019-01-02T15:44:13.889Z,72.83
2019-01-02T15:47:20.814Z,71.44
2019-01-02T15:50:27.846Z,73.27
2019-01-02T15:53:34.697Z,72.60
2019-01-02T15:56:41.651Z,71.32
2019-01-02T15:59:48.919Z,71.30
2019-01-02T16:02:55.644Z,69.57
2019-01-02T16:06:02.371Z,69.79
2019-01-02T16:09:09.790Z,69.12
2019-01-02T16:12:16.738Z,69.43
2019-01-02T16:15:23.478Z,72.03
2019-01-02T16:18:30.537Z,72.06
2019-01-02T16:21:39.043Z,74.21
2019-01-02T16:24:45.954Z,74.83
2019-01-02T16:27:52.902Z,73.60
2019-01-02T16:31:00.134Z,75.51
2019-01-02T16:34:07.091Z,75.62
2019-01-02T16:37:14.859Z,75.58
2019-01-02T16:40:24.858Z,76.94
2019-01-02T16:43:31.874Z,76.67
2019-01-02T16:46:38.891Z,76.88
2019-01-02T16:49:46.192Z,77.41
2019-01-02T16:52:53.129Z,77.86
2019-01-02T16:56:02.137Z,78.20
2019-01-02T16:59:09.163Z,79.29
2019-01-02T17:02:16.300Z,78.53
2019-01-02T17:05:23.595Z,78.56
2019-01-02T17:08:34.357Z,78.36
2019-01-02T17:11:45.119Z,80.80
2019-01-02T17:14:55.244Z,83.41
2019-01-02T17:18:02.372Z,83.89
2019-01-02T17:21:09.280Z,84.20
2019-01-02T17:24:18.083Z,81.05
2019-01-02T17:27:27.277Z,81.27
2019-01-02T17:30:41.808Z,81.51
2019-01-02T17:33:50.492Z,81.27
2019-01-02T17:36:57.502Z,81.38
2019-01-02T17:40:06.473Z,82.37
2019-01-02T17:43:13.648Z,83.97
2019-01-02T17:46:20.542Z,87.64
2019-01-02T17:49:30.910Z,92.31
2019-01-02T17:52:38.290Z,92.20
2019-01-02T17:55:45.252Z,92.98
2019-01-02T17:58:52.355Z,94.17
2019-01-02T18:01:59.476Z,94.64
2019-01-02T18:05:06.718Z,94.69
2019-01-02T18:08:18.097Z,94.15
2019-01-02T18:11:25.787Z,93.89
2019-01-02T18:14:32.559Z,92.94
2019-01-02T18:17:40.071Z,91.55
2019-01-02T18:20:47.295Z,90.27
2019-01-02T18:23:54.231Z,89.03
2019-01-02T18:27:01.594Z,88.60
2019-01-02T18:30:12.235Z,88.02
2019-01-02T18:33:19.438Z,86.83
2019-01-02T18:36:27.855Z,85.01
2019-01-02T18:39:36.324Z,83.16
2019-01-02T18:42:43.245Z,81.70
2019-01-02T18:45:50.179Z,80.82
2019-01-02T18:48:58.221Z,78.59
2019-01-02T18:52:05.025Z,78.26
2019-01-02T18:55:12.386Z,77.44
2019-01-02T18:58:19.232Z,76.74
2019-01-02T19:01:30.205Z,75.95
2019-01-02T19:04:37.222Z,74.73
2019-01-02T19:07:44.237Z,73.64
2019-01-02T19:10:51.007Z,73.40
2019-01-02T19:13:57.914Z,73.42
2019-01-02T19:17:04.880Z,73.04
2019-01-02T19:20:11.960Z,70.95
2019-01-02T19:23:18.987Z,70.46
2019-01-02T19:26:27.266Z,70.26
2019-01-02T19:29:34.583Z,69.87
2019-01-02T19:32:43.453Z,69.01
2019-01-02T19:35:50.197Z,68.42
2019-01-02T19:38:57.394Z,67.80
2019-01-02T19:42:04.411Z,66.11
2019-01-02T19:45:11.479Z,66.01
2019-01-02T19:48:18.925Z,66.15
2019-01-02T19:51:27.713Z,67.11
2019-01-02T19:54:34.998Z,66.93
2019-01-02T19:57:42.009Z,66.25
2019-01-02T20:00:49.262Z,67.54
2019-01-02T20:03:56.158Z,66.56
2019-01-02T20:07:03.120Z,64.91
2019-01-02T20:10:11.508Z,63.58
2019-01-02T20:13:18.435Z,63.26
2019-01-02T20:16:30.227Z,65.32
2019-01-02T20:19:37.208Z,65.10
2019-01-02T20:22:44.103Z,65.00
2019-01-02T20:25:51.034Z,65.75
2019-01-02T20:28:58.042Z,66.06
2019-01-02T20:32:05.092Z,65.52
2019-01-02T20:35:12.024Z,65.53
2019-01-02T20:38:19.061Z,66.51
2019-01-02T20:41:25.961Z,66.58
2019-01-02T20:44:32.948Z,67.53
2019-01-02T20:47:40.105Z,66.89
2019-01-02T20:50:47.080Z,67.68
2019-01-02T20:53:56.062Z,68.46
2019-01-02T20:57:06.168Z,67.97
2019-01-02T21:00:16.442Z,69.21
2019-01-02T21:03:23.181Z,68.69
2019-01-02T21:06:30.303Z,68.38
2019-01-02T21:09:38.958Z,69.51
2019-01-02T21:12:45.782Z,70.04
2019-01-02T21:15:52.803Z,70.38
2019-01-02T21:18:59.457Z,69.94
2019-01-02T21:22:06.158Z,70.33
2019-01-02T21:25:15.076Z,70.35
2019-01-02T21:28:22.209Z,69.47
2019-01-02T21:31:29.138Z,70.22
2019-01-02T21:34:37.492Z,69.43
2019-01-02T21:37:52.409Z,69.45
2019-01-02T21:40:59.334Z,70.14
2019-01-02T21:44:06.481Z,70.16
2019-01-02T21:47:13.321Z,70.78
2019-01-02T21:50:20.206Z,70.94
2019-01-02T21:53:27.159Z,71.09
2019-01-02T21:56:34.164Z,71.10
2019-01-02T21:59:40.887Z,72.57
2019-01-02T22:02:47.788Z,72.21
2019-01-02T22:05:54.744Z,72.11
2019-01-02T22:09:01.730Z,72.66
2019-01-02T22:12:08.492Z,72.19
2019-01-02T22:15:16.263Z,72.52
2019-01-02T22:18:23.214Z,73.05
2019-01-02T22:21:30.395Z,72.83
2019-01-02T22:24:38.126Z,73.50
2019-01-02T22:27:45.390Z,73.12
2019-01-02T22:30:52.785Z,74.04
2019-01-02T22:33:59.605Z,73.63
2019-01-02T22:37:06.713Z,73.86
2019-01-02T22:40:13.502Z,74.36
2019-01-02T22:43:20.442Z,74.05
2019-01-02T22:46:29.627Z,74.84
2019-01-02T22:49:36.784Z,75.08
2019-01-02T22:52:43.956Z,75.13
2019-01-02T22:55:52.101Z,75.25
2019-01-02T22:58:59.269Z,75.25
2019-01-02T23:02:40.217Z,75.92
2019-01-02T23:06:05.189Z,75.63
2019-01-02T23:09:36.909Z,76.30
2019-01-02T23:13:14.773Z,76.38
2019-01-02T23:16:53.231Z,75.69
2019-01-02T23:20:29.624Z,76.34
2019-01-02T23:23:53.923Z,76.51
2019-01-02T23:27:18.420Z,76.24
2019-01-02T23:30:50.299Z,76.43
2019-01-02T23:34:16.146Z,76.17
2019-01-02T23:37:49.479Z,76.69
2019-01-02T23:41:18.357Z,76.94
2019-01-02T23:44:59.371Z,77.37
2019-01-02T23:48:24.142Z,78.01
2019-01-02T23:51:45.271Z,77.94
2019-01-02T23:55:10.136Z,77.73
2019-01-02T23:58:42.191Z,77.79
